createdAt,value
2022-09-23T00:02:24.854Z,3.15
2022-09-23T00:04:53.223Z,2.42
2022-09-23T00:07:22.017Z,2.92
2022-09-23T00:09:55.724Z,3.05
2022-09-23T00:12:24.124Z,4.82
2022-09-23T00:14:52.469Z,3.80
2022-09-23T00:17:20.896Z,7.22
2022-09-23T00:19:49.241Z,3.25
2022-09-23T00:22:17.635Z,2.38
2022-09-23T00:24:55.905Z,2.40
2022-09-23T00:27:24.274Z,6.03
2022-09-23T00:29:52.590Z,3.88
2022-09-23T00:32:30.678Z,2.88
2022-09-23T00:34:59.015Z,5.05
2022-09-23T00:37:28.480Z,2.22
2022-09-23T00:39:57.343Z,2.30
2022-09-23T00:42:35.651Z,3.80
2022-09-23T00:45:14.244Z,4.95
2022-09-23T00:47:48.606Z,4.50
2022-09-23T00:50:35.433Z,3.58
2022-09-23T00:53:11.056Z,3.75
2022-09-23T00:55:42.559Z,5.25
2022-09-23T00:58:13.258Z,5.15
2022-09-23T01:00:42.323Z,2.92
2022-09-23T01:03:12.351Z,7.00
2022-09-23T01:05:40.851Z,4.93
2022-09-23T01:08:10.625Z,3.50
2022-09-23T01:11:00.262Z,8.43
2022-09-23T01:13:34.815Z,5.85
2022-09-23T01:16:26.967Z,5.32
2022-09-23T01:19:05.986Z,7.20
2022-09-23T01:21:38.540Z,3.97
2022-09-23T01:24:09.961Z,5.80
2022-09-23T01:26:38.320Z,9.30
2022-09-23T01:29:19.050Z,7.38
2022-09-23T01:31:58.121Z,8.77
2022-09-23T01:34:38.476Z,5.65
2022-09-23T01:37:06.763Z,8.57
2022-09-23T01:39:50.424Z,7.05
2022-09-23T01:42:29.898Z,6.40
2022-09-23T01:45:31.183Z,3.85
2022-09-23T01:48:10.720Z,6.30
2022-09-23T01:50:58.528Z,5.72
2022-09-23T01:53:51.726Z,3.67
2022-09-23T01:56:26.069Z,5.38
2022-09-23T01:59:13.081Z,6.43
2022-09-23T02:01:56.653Z,7.93
2022-09-23T02:04:45.391Z,8.43
2022-09-23T02:07:18.408Z,5.32
2022-09-23T02:09:49.575Z,6.75
2022-09-23T02:12:19.518Z,5.38
2022-09-23T02:14:51.156Z,4.95
2022-09-23T02:17:26.023Z,6.65
2022-09-23T02:19:57.869Z,10.40
2022-09-23T02:22:40.440Z,6.13
2022-09-23T02:25:13.864Z,5.82
2022-09-23T02:27:58.422Z,10.00
2022-09-23T02:30:41.851Z,9.85
2022-09-23T02:33:33.155Z,8.88
2022-09-23T02:36:07.214Z,5.22
2022-09-23T02:38:40.993Z,6.03
2022-09-23T02:41:16.554Z,9.67
2022-09-23T02:44:03.773Z,11.10
2022-09-23T02:46:32.241Z,9.48
2022-09-23T02:49:06.725Z,13.43
2022-09-23T02:51:38.648Z,13.80
2022-09-23T02:54:10.657Z,10.27
2022-09-23T02:56:44.125Z,9.75
2022-09-23T02:59:13.016Z,8.32
2022-09-23T03:01:47.956Z,15.38
2022-09-23T03:04:16.393Z,15.52
2022-09-23T03:06:55.768Z,16.95
2022-09-23T03:09:30.783Z,13.45
2022-09-23T03:12:21.936Z,8.75
2022-09-23T03:15:02.031Z,7.30
2022-09-23T03:17:41.866Z,8.75
2022-09-23T03:20:26.037Z,11.05
2022-09-23T03:22:57.520Z,8.48
2022-09-23T03:25:26.348Z,12.05
2022-09-23T03:27:57.834Z,10.80
2022-09-23T03:30:26.886Z,45.75
2022-09-23T03:33:01.333Z,24.88
2022-09-23T03:35:58.361Z,14.23
2022-09-23T03:38:31.609Z,24.58
2022-09-23T03:41:06.420Z,15.32
2022-09-23T03:43:38.666Z,13.38
2022-09-23T03:46:09.252Z,12.23
2022-09-23T03:48:37.796Z,17.30
2022-09-23T03:51:20.951Z,17.30
2022-09-23T03:53:58.461Z,17.45
2022-09-23T03:56:26.829Z,16.98
2022-09-23T03:59:04.642Z,17.73
2022-09-23T04:01:33.034Z,13.77
2022-09-23T04:04:01.565Z,16.63
2022-09-23T04:06:33.086Z,24.30
2022-09-23T04:09:06.966Z,22.55
2022-09-23T04:11:39.817Z,26.85
2022-09-23T04:14:08.274Z,20.00
2022-09-23T04:19:14.291Z,27.10
2022-09-23T04:21:48.881Z,24.80
2022-09-23T04:24:17.680Z,32.80
2022-09-23T04:26:46.124Z,28.90
2022-09-23T04:29:25.434Z,29.42
2022-09-23T04:31:59.008Z,37.47
2022-09-23T04:34:27.551Z,40.50
2022-09-23T04:36:55.977Z,44.08
2022-09-23T04:39:24.383Z,40.95
2022-09-23T04:42:04.443Z,43.65
2022-09-23T04:44:33.450Z,35.50
2022-09-23T04:47:07.018Z,42.10
2022-09-23T04:49:35.485Z,37.72
2022-09-23T04:52:06.096Z,38.63
2022-09-23T04:54:34.439Z,37.47
2022-09-23T04:57:02.771Z,31.45
2022-09-23T04:59:31.031Z,38.35
2022-09-23T05:01:59.337Z,30.92
2022-09-23T05:04:27.873Z,37.67
2022-09-23T05:06:59.485Z,32.03
2022-09-23T05:09:31.560Z,33.05
2022-09-23T05:11:59.874Z,32.70
2022-09-23T05:14:28.186Z,29.10
2022-09-23T05:16:56.431Z,27.85
2022-09-23T05:19:34.776Z,29.88
2022-09-23T05:22:03.063Z,29.33
2022-09-23T05:24:31.600Z,34.17
2022-09-23T05:27:01.223Z,29.00
2022-09-23T05:29:29.584Z,30.30
2022-09-23T05:31:57.909Z,26.20
2022-09-23T05:34:26.174Z,34.88
2022-09-23T05:36:54.486Z,32.90
2022-09-23T05:39:22.943Z,29.13
2022-09-23T05:41:51.367Z,28.73
2022-09-23T05:44:19.917Z,29.50
2022-09-23T05:46:48.385Z,31.40
2022-09-23T05:49:16.775Z,28.05
2022-09-23T05:51:45.121Z,28.08
2022-09-23T05:54:13.343Z,25.67
2022-09-23T05:56:41.692Z,25.83
2022-09-23T05:59:10.539Z,27.20
2022-09-23T06:01:39.712Z,23.90
2022-09-23T06:04:08.660Z,29.63
2022-09-23T06:06:38.460Z,22.70
2022-09-23T06:09:07.987Z,32.13
2022-09-23T06:11:37.266Z,22.52
2022-09-23T06:14:05.917Z,25.75
2022-09-23T06:16:35.595Z,28.42
2022-09-23T06:19:07.138Z,27.20
2022-09-23T06:21:38.778Z,32.42
2022-09-23T06:24:07.581Z,22.88
2022-09-23T06:26:38.230Z,25.17
2022-09-23T06:29:12.088Z,25.08
2022-09-23T06:31:42.166Z,22.98
2022-09-23T06:34:13.488Z,22.55
2022-09-23T06:36:44.892Z,23.83
2022-09-23T06:39:15.021Z,26.55
2022-09-23T06:41:43.901Z,24.63
2022-09-23T06:44:15.523Z,19.45
2022-09-23T06:46:44.543Z,21.52
2022-09-23T06:49:13.723Z,23.58
2022-09-23T06:51:42.110Z,16.60
2022-09-23T06:54:11.496Z,26.45
2022-09-23T06:56:40.109Z,17.65
2022-09-23T06:59:10.425Z,16.80
2022-09-23T07:01:39.007Z,19.05
2022-09-23T07:04:08.082Z,14.30
2022-09-23T07:06:37.398Z,19.27
2022-09-23T07:09:09.065Z,17.23
2022-09-23T07:11:38.759Z,18.92
2022-09-23T07:14:07.100Z,19.83
2022-09-23T07:16:35.451Z,25.92
2022-09-23T07:19:03.757Z,17.95
2022-09-23T07:21:32.390Z,19.27
2022-09-23T07:24:04.199Z,16.40
2022-09-23T07:26:34.477Z,18.35
2022-09-23T07:29:13.655Z,21.98
2022-09-23T07:31:42.338Z,17.02
2022-09-23T07:34:11.993Z,20.65
2022-09-23T07:36:41.260Z,21.63
2022-09-23T07:39:11.527Z,21.77
2022-09-23T07:41:40.026Z,17.50
2022-09-23T07:44:09.122Z,20.20
2022-09-23T07:46:46.730Z,18.35
2022-09-23T07:49:14.975Z,21.80
2022-09-23T07:51:46.701Z,22.85
2022-09-23T07:54:16.158Z,22.30
2022-09-23T07:56:49.529Z,23.50
2022-09-23T07:59:18.686Z,18.95
2022-09-23T08:01:48.795Z,22.40
2022-09-23T08:04:19.635Z,20.37
2022-09-23T08:06:49.588Z,22.58
2022-09-23T08:09:19.278Z,20.20
2022-09-23T08:11:48.129Z,23.45
2022-09-23T08:14:19.006Z,17.98
2022-09-23T08:16:48.040Z,103.57
2022-09-23T08:19:16.921Z,89.85
2022-09-23T08:21:50.290Z,23.90
2022-09-23T08:24:19.855Z,18.55
2022-09-23T08:26:48.611Z,20.77
2022-09-23T08:29:26.777Z,21.23
2022-09-23T08:31:55.519Z,22.52
2022-09-23T08:34:24.263Z,20.20
2022-09-23T08:36:58.314Z,24.02
2022-09-23T08:39:36.880Z,24.55
2022-09-23T08:42:20.854Z,22.75
2022-09-23T08:44:54.839Z,17.98
2022-09-23T08:47:32.741Z,20.60
2022-09-23T08:50:03.378Z,21.23
2022-09-23T08:52:41.521Z,17.92
2022-09-23T08:55:13.342Z,17.33
2022-09-23T08:58:23.907Z,17.08
2022-09-23T09:00:55.403Z,15.60
2022-09-23T09:03:25.110Z,13.38
2022-09-23T09:05:54.618Z,15.93
2022-09-23T09:08:35.713Z,22.17
2022-09-23T09:11:04.355Z,18.63
2022-09-23T09:13:43.740Z,19.45
2022-09-23T09:16:48.352Z,18.23
2022-09-23T09:19:19.507Z,20.92
2022-09-23T09:21:52.216Z,19.25
2022-09-23T09:24:31.336Z,17.98
2022-09-23T09:27:01.261Z,18.08
2022-09-23T09:29:35.747Z,19.23
2022-09-23T09:32:20.900Z,22.58
2022-09-23T09:34:58.685Z,32.85
2022-09-23T09:37:34.026Z,17.27
2022-09-23T09:40:05.554Z,15.38
2022-09-23T09:42:51.766Z,19.60
2022-09-23T09:45:38.927Z,19.27
2022-09-23T09:48:17.809Z,22.38
2022-09-23T09:50:50.287Z,21.42
2022-09-23T09:53:26.095Z,20.40
2022-09-23T09:56:03.737Z,19.90
2022-09-23T09:58:48.467Z,17.92
2022-09-23T10:01:20.713Z,22.08
2022-09-23T10:03:58.490Z,15.52
2022-09-23T10:06:29.020Z,27.10
2022-09-23T10:09:06.645Z,18.77
2022-09-23T10:11:35.224Z,22.20
2022-09-23T10:14:11.565Z,22.08
2022-09-23T10:16:43.164Z,26.20
2022-09-23T10:19:14.538Z,21.25
2022-09-23T10:21:43.589Z,24.05
2022-09-23T10:24:21.137Z,23.73
2022-09-23T10:27:08.235Z,23.13
2022-09-23T10:29:48.907Z,19.83
2022-09-23T10:32:40.294Z,24.67
2022-09-23T10:35:14.043Z,27.45
2022-09-23T10:37:58.517Z,21.85
2022-09-23T10:40:48.866Z,22.48
2022-09-23T10:43:38.945Z,26.45
2022-09-23T10:46:28.130Z,19.65
2022-09-23T10:48:58.569Z,25.88
2022-09-23T10:51:32.471Z,32.72
2022-09-23T10:54:24.010Z,30.38
2022-09-23T10:57:01.199Z,28.65
2022-09-23T11:02:59.509Z,24.67
2022-09-23T11:05:33.968Z,24.42
2022-09-23T11:08:22.540Z,20.20
2022-09-23T11:11:04.308Z,25.60
2022-09-23T11:13:43.091Z,22.33
2022-09-23T11:16:20.202Z,22.95
2022-09-23T11:18:48.506Z,22.50
2022-09-23T11:21:32.186Z,29.17
2022-09-23T11:24:01.549Z,24.13
2022-09-23T11:26:41.694Z,23.35
2022-09-23T11:29:18.021Z,319.48
2022-09-23T11:31:59.763Z,33.40
2022-09-23T11:34:52.615Z,33.55
2022-09-23T11:37:35.579Z,30.60
2022-09-23T11:40:16.423Z,29.30
2022-09-23T11:42:53.021Z,31.08
2022-09-23T11:48:45.872Z,35.92
2022-09-23T11:51:21.857Z,33.83
2022-09-23T11:54:05.169Z,63.08
2022-09-23T11:56:49.300Z,58.88
2022-09-23T11:59:36.193Z,41.33
2022-09-23T12:02:20.353Z,26.17
2022-09-23T12:04:58.667Z,25.33
2022-09-23T12:07:31.734Z,32.92
2022-09-23T12:10:00.633Z,22.00
2022-09-23T12:12:50.028Z,23.42
2022-09-23T12:15:40.695Z,27.73
2022-09-23T12:21:50.262Z,20.52
2022-09-23T12:24:45.139Z,40.88
2022-09-23T12:27:34.680Z,31.70
2022-09-23T12:30:05.314Z,41.50
2022-09-23T12:32:34.366Z,38.97
2022-09-23T12:35:03.140Z,31.52
2022-09-23T12:37:36.440Z,30.75
2022-09-23T12:40:22.721Z,28.27
2022-09-23T12:42:51.475Z,26.90
2022-09-23T12:45:32.911Z,27.92
2022-09-23T12:48:05.093Z,23.15
2022-09-23T12:50:51.215Z,24.52
2022-09-23T12:53:34.041Z,20.05
2022-09-23T12:56:14.469Z,53.53
2022-09-23T12:58:42.747Z,99.47
2022-09-23T13:01:18.803Z,131.65
2022-09-23T13:04:09.738Z,755.13
2022-09-23T13:06:59.119Z,53.13
2022-09-23T13:09:42.439Z,35.58
2022-09-23T13:12:19.001Z,32.40
2022-09-23T13:14:49.537Z,29.20
2022-09-23T13:17:25.288Z,42.90
2022-09-23T13:20:07.692Z,44.15
2022-09-23T13:25:22.514Z,36.60
2022-09-23T13:27:55.612Z,30.05
2022-09-23T13:30:28.936Z,45.53
2022-09-23T13:33:09.327Z,36.17
2022-09-23T13:35:46.644Z,41.20
2022-09-23T13:38:26.600Z,38.08
2022-09-23T13:41:10.306Z,43.75
2022-09-23T13:43:59.081Z,39.03
2022-09-23T13:46:43.559Z,41.50
2022-09-23T13:49:32.994Z,43.78
2022-09-23T13:52:32.715Z,47.25
2022-09-23T13:55:01.986Z,47.30
2022-09-23T13:57:32.436Z,48.38
2022-09-23T14:00:25.006Z,52.60
2022-09-23T14:02:56.268Z,65.15
2022-09-23T14:05:34.825Z,93.85
2022-09-23T14:08:03.290Z,98.37
2022-09-23T14:10:31.803Z,91.50
2022-09-23T14:13:00.280Z,88.18
2022-09-23T14:15:28.682Z,79.80
2022-09-23T14:18:08.122Z,83.13
2022-09-23T14:20:48.503Z,145.63
2022-09-23T14:23:27.092Z,129.27
2022-09-23T14:25:56.105Z,160.40
2022-09-23T14:28:25.862Z,122.43
2022-09-23T14:30:57.836Z,113.75
2022-09-23T14:33:27.718Z,127.40
2022-09-23T14:35:58.398Z,110.97
2022-09-23T14:38:46.226Z,99.83
2022-09-23T14:41:17.672Z,116.50
2022-09-23T14:43:58.386Z,137.18
2022-09-23T14:46:28.584Z,131.43
2022-09-23T14:49:04.435Z,149.60
2022-09-23T14:51:35.471Z,171.55
2022-09-23T14:57:25.499Z,189.02
2022-09-23T14:59:56.892Z,174.35
2022-09-23T15:02:33.347Z,165.77
2022-09-23T15:05:13.400Z,168.68
2022-09-23T15:07:43.020Z,165.85
2022-09-23T15:10:23.935Z,167.48
2022-09-23T15:13:31.697Z,147.98
2022-09-23T15:16:04.557Z,133.25
2022-09-23T15:18:35.117Z,134.07
2022-09-23T15:21:18.830Z,138.80
2022-09-23T15:23:53.437Z,144.40
2022-09-23T15:26:46.279Z,146.95
2022-09-23T15:29:20.442Z,157.65
2022-09-23T15:31:48.898Z,158.93
2022-09-23T15:34:19.388Z,131.35
2022-09-23T15:36:48.764Z,139.38
2022-09-23T15:39:17.284Z,134.53
2022-09-23T15:41:45.698Z,144.75
2022-09-23T15:44:19.046Z,144.45
2022-09-23T15:46:48.912Z,138.45
2022-09-23T15:49:26.513Z,138.57
2022-09-23T15:52:00.401Z,228.55
2022-09-23T15:54:29.349Z,168.48
2022-09-23T15:57:07.974Z,191.48
2022-09-23T15:59:38.562Z,176.90
2022-09-23T16:02:15.166Z,227.77
2022-09-23T16:04:44.041Z,205.50
2022-09-23T16:07:23.405Z,183.57
2022-09-23T16:09:52.204Z,168.38
2022-09-23T16:12:30.919Z,149.15
2022-09-23T16:14:59.281Z,143.15
2022-09-23T16:17:38.089Z,173.65
2022-09-23T16:20:12.031Z,157.05
2022-09-23T16:22:47.326Z,151.77
2022-09-23T16:25:16.062Z,171.35
2022-09-23T16:27:48.691Z,159.18
2022-09-23T16:30:17.116Z,145.48
2022-09-23T16:32:56.183Z,142.20
2022-09-23T16:35:31.686Z,158.75
2022-09-23T16:38:00.249Z,155.88
2022-09-23T16:40:42.370Z,153.93
2022-09-23T16:43:13.294Z,157.60
2022-09-23T16:45:42.550Z,146.07
2022-09-23T16:48:21.697Z,147.13
2022-09-23T16:50:55.079Z,148.35
2022-09-23T16:53:31.006Z,140.52
2022-09-23T16:55:59.457Z,112.47
2022-09-23T16:58:31.205Z,125.20
2022-09-23T17:01:24.761Z,143.73
2022-09-23T17:03:53.635Z,116.03
2022-09-23T17:06:30.329Z,121.57
2022-09-23T17:09:04.203Z,94.20
2022-09-23T17:11:34.238Z,94.43
2022-09-23T17:14:02.951Z,92.25
2022-09-23T17:16:38.803Z,137.98
2022-09-23T17:19:12.456Z,130.40
2022-09-23T17:21:43.130Z,125.38
2022-09-23T17:24:11.928Z,144.70
2022-09-23T17:26:40.940Z,124.15
2022-09-23T17:29:15.452Z,124.85
2022-09-23T17:31:43.849Z,138.40
2022-09-23T17:34:15.337Z,130.93
2022-09-23T17:36:43.624Z,127.32
2022-09-23T17:39:11.930Z,119.22
2022-09-23T17:41:40.255Z,111.82
2022-09-23T17:44:11.395Z,119.25
2022-09-23T17:46:39.910Z,117.05
2022-09-23T17:49:09.618Z,101.57
2022-09-23T17:51:40.296Z,97.30
2022-09-23T17:54:08.862Z,100.05
2022-09-23T17:56:37.241Z,87.50
2022-09-23T17:59:05.699Z,93.40
2022-09-23T18:01:39.071Z,81.10
2022-09-23T18:04:07.835Z,84.30
2022-09-23T18:06:37.504Z,86.38
2022-09-23T18:09:07.195Z,78.65
2022-09-23T18:11:41.876Z,86.45
2022-09-23T18:14:18.141Z,80.07
2022-09-23T18:16:48.343Z,88.63
2022-09-23T18:19:18.272Z,75.85
2022-09-23T18:21:51.227Z,76.68
2022-09-23T18:24:35.436Z,75.78
2022-09-23T18:27:06.850Z,74.22
2022-09-23T18:29:35.557Z,73.32
2022-09-23T18:32:13.347Z,73.50
2022-09-23T18:34:42.497Z,72.85
2022-09-23T18:37:15.810Z,77.40
2022-09-23T18:39:44.982Z,83.10
2022-09-23T18:42:18.518Z,71.95
2022-09-23T18:44:54.858Z,78.22
2022-09-23T18:47:42.234Z,80.13
2022-09-23T18:50:34.644Z,69.38
2022-09-23T18:53:03.154Z,76.45
2022-09-23T18:55:42.055Z,78.03
2022-09-23T18:58:14.286Z,78.43
2022-09-23T19:00:43.252Z,65.53
2022-09-23T19:03:11.704Z,72.10
2022-09-23T19:05:40.166Z,62.22
2022-09-23T19:08:13.771Z,71.68
2022-09-23T19:10:56.147Z,59.63
2022-09-23T19:13:24.679Z,67.05
2022-09-23T19:16:04.158Z,61.67
2022-09-23T19:18:38.916Z,62.47
2022-09-23T19:21:13.072Z,58.90
2022-09-23T19:23:45.129Z,55.45
2022-09-23T19:26:26.307Z,68.57
2022-09-23T19:29:00.905Z,61.63
2022-09-23T19:31:39.552Z,60.70
2022-09-23T19:34:18.159Z,57.13
2022-09-23T19:36:53.153Z,61.05
2022-09-23T19:39:22.855Z,57.88
2022-09-23T19:42:02.022Z,57.50
2022-09-23T19:44:39.639Z,52.92
2022-09-23T19:47:08.523Z,57.83
2022-09-23T19:49:36.941Z,60.20
2022-09-23T19:52:05.299Z,57.43
2022-09-23T19:54:33.669Z,53.50
2022-09-23T19:57:01.993Z,53.90
2022-09-23T19:59:30.366Z,60.92
2022-09-23T20:01:58.921Z,63.83
2022-09-23T20:04:27.270Z,56.72
2022-09-23T20:06:55.593Z,57.60
2022-09-23T20:09:23.914Z,60.28
2022-09-23T20:11:52.564Z,57.65
2022-09-23T20:14:21.175Z,58.28
2022-09-23T20:16:49.781Z,52.17
2022-09-23T20:19:18.126Z,54.05
2022-09-23T20:22:15.005Z,47.33
2022-09-23T20:24:43.350Z,52.22
2022-09-23T20:27:16.642Z,50.63
2022-09-23T20:29:45.077Z,57.40
2022-09-23T20:32:13.947Z,49.50
2022-09-23T20:34:50.017Z,54.45
2022-09-23T20:37:18.795Z,50.58
2022-09-23T20:39:48.209Z,49.65
2022-09-23T20:42:16.883Z,50.65
2022-09-23T20:44:45.505Z,51.67
2022-09-23T20:47:17.574Z,56.85
2022-09-23T20:49:46.629Z,54.97
2022-09-23T20:52:16.717Z,55.30
2022-09-23T20:54:45.285Z,59.67
2022-09-23T20:57:24.083Z,54.38
2022-09-23T21:00:02.342Z,52.00
2022-09-23T21:02:37.781Z,60.83
2022-09-23T21:05:10.900Z,61.47
2022-09-23T21:07:39.347Z,60.75
2022-09-23T21:10:17.750Z,63.88
2022-09-23T21:12:50.775Z,58.13
2022-09-23T21:15:19.090Z,65.20
2022-09-23T21:17:57.600Z,57.45
2022-09-23T21:20:26.574Z,55.72
2022-09-23T21:22:56.742Z,52.80
2022-09-23T21:25:30.526Z,57.00
2022-09-23T21:28:02.189Z,55.97
2022-09-23T21:30:41.768Z,56.35
2022-09-23T21:33:10.199Z,59.20
2022-09-23T21:35:51.804Z,63.65
2022-09-23T21:38:30.350Z,58.35
2022-09-23T21:41:05.207Z,63.58
2022-09-23T21:43:44.497Z,66.18
2022-09-23T21:46:14.765Z,62.35
2022-09-23T21:48:43.313Z,58.47
2022-09-23T21:51:15.725Z,59.88
2022-09-23T21:53:45.067Z,58.40
2022-09-23T21:56:20.692Z,61.38
2022-09-23T21:58:53.729Z,55.15
2022-09-23T22:01:26.597Z,66.70
2022-09-23T22:03:56.460Z,49.78
2022-09-23T22:06:27.256Z,49.53
2022-09-23T22:09:02.352Z,52.03
2022-09-23T22:11:58.923Z,54.05
2022-09-23T22:14:27.583Z,51.67
2022-09-23T22:16:59.326Z,53.67
2022-09-23T22:19:35.771Z,47.40
2022-09-23T22:22:08.432Z,46.13
2022-09-23T22:24:36.856Z,49.67
2022-09-23T22:27:05.324Z,42.85
2022-09-23T22:29:52.142Z,48.70
2022-09-23T22:32:40.845Z,43.50
2022-09-23T22:35:10.600Z,49.95
2022-09-23T22:37:39.327Z,54.08
2022-09-23T22:40:09.950Z,46.83
2022-09-23T22:42:40.502Z,45.42
2022-09-23T22:45:10.150Z,49.60
2022-09-23T22:47:39.104Z,46.85
2022-09-23T22:50:08.520Z,49.90
2022-09-23T22:52:37.895Z,43.17
2022-09-23T22:55:08.336Z,43.70
2022-09-23T22:57:37.283Z,43.15
2022-09-23T23:00:06.850Z,44.33
2022-09-23T23:02:35.250Z,42.65
2022-09-23T23:05:03.691Z,39.92
2022-09-23T23:07:32.525Z,46.85
2022-09-23T23:10:00.872Z,43.83
2022-09-23T23:12:31.255Z,46.20
2022-09-23T23:14:59.619Z,46.58
2022-09-23T23:17:27.994Z,44.67
2022-09-23T23:19:56.471Z,39.20
2022-09-23T23:22:26.712Z,47.35
2022-09-23T23:24:55.299Z,43.20
2022-09-23T23:27:23.633Z,49.92
2022-09-23T23:29:52.001Z,50.35
2022-09-23T23:32:20.384Z,45.78
2022-09-23T23:34:53.780Z,42.40
2022-09-23T23:37:26.808Z,46.40
2022-09-23T23:39:55.642Z,46.40
2022-09-23T23:42:24.035Z,50.90
2022-09-23T23:44:52.490Z,45.08
2022-09-23T23:47:21.716Z,41.20
2022-09-23T23:49:50.358Z,45.25
2022-09-23T23:52:18.712Z,46.40
2022-09-23T23:54:47.072Z,48.58
2022-09-23T23:57:15.484Z,47.00
2022-09-23T23:59:48.855Z,45.45
